Time;durP1;ratioP1;P1;durP2;ratioP2;P2;SDS_P1;SDS_P2;PMS_P1;PMS_P2;Temp;Humidity;BMP_temperature;BMP_pressure;BME280_temperature;BME280_humidity;BME280_pressure;Samples;Min_cycle;Max_cycle;Signal;HPM_P1;HPM_P2
2021/05/14 00:01:18;;;;;;;4.40;4.00;;;;;;;13.13;100.00;93264.75;5074122;28;20229;-93
2021/05/14 00:03:45;;;;;;;4.73;3.93;;;;;;;13.20;100.00;93252.16;5072803;28;20225;-91
2021/05/14 00:06:17;;;;;;;4.93;4.00;;;;;;;13.13;100.00;93263.91;5073313;28;20785;-91
2021/05/14 00:08:44;;;;;;;4.17;3.87;;;;;;;12.84;100.00;93282.56;5073877;28;20579;-92
2021/05/14 00:11:12;;;;;;;4.40;4.10;;;;;;;12.82;100.00;93253.06;5073833;28;20297;-91
2021/05/14 00:13:39;;;;;;;4.43;4.13;;;;;;;13.01;100.00;93212.13;5073915;28;20201;-93
2021/05/14 00:16:07;;;;;;;4.37;4.07;;;;;;;13.10;100.00;93175.59;5073516;28;20197;-92
2021/05/14 00:18:34;;;;;;;4.03;3.73;;;;;;;12.88;100.00;93165.06;5073459;28;20196;-93
2021/05/14 00:21:01;;;;;;;4.60;4.20;;;;;;;12.87;100.00;93152.16;5073907;28;20224;-92
2021/05/14 00:23:28;;;;;;;5.97;4.10;;;;;;;12.81;100.00;93122.31;5073871;28;20292;-92
2021/05/14 00:25:55;;;;;;;6.07;3.90;;;;;;;13.02;100.00;93089.84;5073489;28;20221;-94
2021/05/14 00:28:23;;;;;;;3.97;3.67;;;;;;;12.90;100.00;93094.47;5073416;28;20284;-92
2021/05/14 00:30:49;;;;;;;4.20;3.90;;;;;;;12.95;100.00;93126.13;5073742;28;20669;-92
2021/05/14 00:33:16;;;;;;;4.57;4.20;;;;;;;12.69;100.00;93154.06;5073407;28;20189;-91
2021/05/14 00:35:43;;;;;;;4.37;4.00;;;;;;;12.60;100.00;93140.53;5073273;28;20685;-94
2021/05/14 00:38:10;;;;;;;4.03;3.73;;;;;;;12.60;100.00;93113.41;5073135;28;20240;-93
2021/05/14 00:40:37;;;;;;;3.90;3.60;;;;;;;12.69;100.00;93093.47;5073477;28;20291;-95
2021/05/14 00:43:04;;;;;;;4.43;4.10;;;;;;;12.44;100.00;93117.72;5072950;28;20232;-94
2021/05/14 00:45:31;;;;;;;6.07;4.50;;;;;;;12.12;100.00;93099.16;5073156;28;20255;-94
2021/05/14 00:47:58;;;;;;;4.47;4.00;;;;;;;12.44;100.00;93038.72;5072984;28;20662;-94
2021/05/14 00:50:25;;;;;;;4.67;4.27;;;;;;;12.49;100.00;93024.78;5073524;28;20201;-94
2021/05/14 00:52:53;;;;;;;4.80;4.40;;;;;;;12.65;100.00;93012.56;5073412;28;20220;-92
2021/05/14 00:55:20;;;;;;;4.47;4.17;;;;;;;12.72;100.00;93028.94;5073785;28;20284;-93
2021/05/14 00:57:46;;;;;;;4.33;3.83;;;;;;;12.82;100.00;93044.84;5073018;28;20220;-92
2021/05/14 01:00:14;;;;;;;4.10;3.77;;;;;;;12.68;100.00;93070.81;5073204;28;20196;-93
2021/05/14 01:02:42;;;;;;;3.53;3.33;;;;;;;12.69;100.00;93061.84;5072691;28;20307;-93
2021/05/14 01:05:10;;;;;;;3.23;3.00;;;;;;;12.85;100.00;93083.88;5072825;28;20189;-91
2021/05/14 01:07:37;;;;;;;3.80;3.50;;;;;;;12.69;100.00;93126.94;5072830;28;20197;-94
2021/05/14 01:10:04;;;;;;;4.63;3.73;;;;;;;12.79;100.00;93130.47;5072789;28;20207;-94
2021/05/14 01:12:31;;;;;;;4.60;4.20;;;;;;;12.70;100.00;93149.59;5072900;28;20204;-93
2021/05/14 01:14:58;;;;;;;4.03;3.80;;;;;;;12.74;100.00;93154.13;5072442;28;20193;-93
2021/05/14 01:17:25;;;;;;;5.13;3.70;;;;;;;12.84;100.00;93151.59;5072941;28;20232;-93
2021/05/14 01:19:53;;;;;;;5.57;4.20;;;;;;;12.78;100.00;93149.97;5072729;28;20193;-92
2021/05/14 01:22:22;;;;;;;4.40;4.00;;;;;;;12.78;100.00;93152.59;5072955;28;20193;-94
2021/05/14 01:24:48;;;;;;;4.73;4.33;;;;;;;12.82;100.00;93153.69;5072693;28;20197;-93
2021/05/14 01:27:15;;;;;;;6.27;4.87;;;;;;;12.82;100.00;93176.63;5072639;28;20268;-93
2021/05/14 01:29:43;;;;;;;4.57;4.27;;;;;;;12.68;100.00;93199.09;5072229;28;20688;-94
2021/05/14 01:32:10;;;;;;;5.23;4.40;;;;;;;12.56;100.00;93199.25;5072504;28;20197;-92
2021/05/14 01:34:37;;;;;;;4.20;3.80;;;;;;;12.54;100.00;93203.97;5072302;28;20244;-94
2021/05/14 01:37:04;;;;;;;4.70;4.30;;;;;;;12.52;100.00;93227.91;5072567;28;20233;-93
2021/05/14 01:39:32;;;;;;;4.80;3.77;;;;;;;12.13;100.00;93248.22;5072752;28;20314;-93
2021/05/14 01:42:00;;;;;;;3.63;3.43;;;;;;;12.01;100.00;93197.47;5072525;28;20240;-94
2021/05/14 01:44:26;;;;;;;4.10;3.80;;;;;;;11.80;100.00;93151.63;5072607;28;20205;-92
2021/05/14 01:46:53;;;;;;;3.80;3.50;;;;;;;11.43;100.00;93124.03;5072305;28;20773;-94
2021/05/14 01:49:20;;;;;;;4.23;3.60;;;;;;;11.39;100.00;93059.00;5072590;28;20239;-93
2021/05/14 01:51:47;;;;;;;4.60;4.23;;;;;;;11.74;100.00;93000.81;5072907;28;20295;-93
2021/05/14 01:54:14;;;;;;;5.10;4.13;;;;;;;11.96;100.00;92998.19;5072523;28;20239;-93
2021/05/14 01:56:46;;;;;;;3.57;3.27;;;;;;;12.09;100.00;93008.34;5072325;28;20258;-93
2021/05/14 01:59:13;;;;;;;4.50;4.03;;;;;;;12.03;100.00;93022.47;5072667;28;20185;-92
2021/05/14 02:01:40;;;;;;;3.97;3.67;;;;;;;12.16;100.00;93039.75;5072682;28;20197;-91
2021/05/14 02:04:07;;;;;;;3.97;3.67;;;;;;;11.97;100.00;93052.41;5072111;28;20689;-92
2021/05/14 02:06:35;;;;;;;3.70;3.40;;;;;;;11.92;100.00;93005.00;5072468;28;20259;-93
2021/05/14 02:09:02;;;;;;;3.83;3.60;;;;;;;11.65;100.00;92999.66;5072626;28;20193;-93
2021/05/14 02:11:29;;;;;;;4.97;3.63;;;;;;;11.70;100.00;92939.19;5072428;28;20636;-92
2021/05/14 02:13:56;;;;;;;3.80;3.47;;;;;;;11.70;100.00;92878.69;5072466;28;20649;-93
2021/05/14 02:16:23;;;;;;;4.63;3.80;;;;;;;11.71;100.00;92821.59;5072258;28;20711;-94
2021/05/14 02:18:51;;;;;;;4.13;3.80;;;;;;;11.83;100.00;92791.47;5072168;28;20197;-92
2021/05/14 02:21:18;;;;;;;4.27;3.90;;;;;;;11.89;100.00;92842.34;5072433;28;20200;-93
2021/05/14 02:23:45;;;;;;;4.47;4.03;;;;;;;11.78;100.00;92917.72;5072345;28;20203;-92
2021/05/14 02:26:12;;;;;;;5.37;4.10;;;;;;;11.65;100.00;92966.25;5071923;28;20256;-93
2021/05/14 02:28:39;;;;;;;4.90;4.50;;;;;;;11.82;100.00;92931.19;5074777;28;20254;-92
2021/05/14 02:31:06;;;;;;;4.83;4.33;;;;;;;11.85;100.00;92884.16;5075580;28;20240;-93
2021/05/14 02:33:33;;;;;;;4.70;4.30;;;;;;;11.87;100.00;92853.09;5075548;28;20200;-93
2021/05/14 02:36:00;;;;;;;4.87;4.33;;;;;;;11.85;100.00;92854.41;5075356;28;20754;-93
2021/05/14 02:38:27;;;;;;;5.50;4.73;;;;;;;11.88;100.00;92862.59;5075500;28;20699;-92
2021/05/14 02:40:54;;;;;;;4.67;4.37;;;;;;;11.69;100.00;92876.31;5075460;28;20276;-93
2021/05/14 02:43:21;;;;;;;4.87;4.47;;;;;;;11.59;100.00;92869.91;5075689;28;20326;-93
2021/05/14 02:45:48;;;;;;;4.47;3.83;;;;;;;11.77;100.00;92823.25;5075466;28;20225;-92
2021/05/14 02:48:20;;;;;;;6.70;4.10;;;;;;;11.84;100.00;92815.97;5075261;28;20307;-93
2021/05/14 02:50:47;;;;;;;4.73;4.37;;;;;;;11.82;100.00;92792.53;5075567;28;20234;-92
2021/05/14 02:53:14;;;;;;;4.60;4.20;;;;;;;11.66;100.00;92749.50;5075255;28;20208;-93
2021/05/14 02:55:41;;;;;;;8.70;4.77;;;;;;;11.54;100.00;92672.63;5075500;28;20196;-94
2021/05/14 02:58:07;;;;;;;5.30;4.80;;;;;;;11.34;100.00;92588.34;5075050;28;20250;-93
2021/05/14 03:00:34;;;;;;;5.57;4.57;;;;;;;11.45;100.00;92463.78;5075105;28;20196;-92
2021/05/14 03:03:01;;;;;;;6.10;4.57;;;;;;;11.51;100.00;92354.16;5074996;28;20331;-93
2021/05/14 03:05:29;;;;;;;5.47;4.97;;;;;;;11.61;100.00;92268.19;5075026;28;20290;-94
2021/05/14 03:07:55;;;;;;;4.83;4.03;;;;;;;11.80;100.00;92181.63;5074956;28;20276;-93
2021/05/14 03:10:22;;;;;;;4.43;4.13;;;;;;;11.93;100.00;92145.34;5075205;28;20235;-93
2021/05/14 03:12:58;;;;;;;7.50;5.30;;;;;;;11.85;100.00;92215.84;5074834;28;20197;-93
2021/05/14 03:15:25;;;;;;;6.37;5.77;;;;;;;11.61;100.00;92357.59;5074865;28;20582;-93
2021/05/14 03:17:52;;;;;;;6.37;5.10;;;;;;;11.56;100.00;92457.50;5075014;28;20197;-93
2021/05/14 03:20:19;;;;;;;6.43;5.10;;;;;;;11.21;100.00;92538.81;5074673;28;20228;-94
2021/05/14 03:22:47;;;;;;;5.40;4.97;;;;;;;11.03;100.00;92542.66;5075095;28;20235;-94
2021/05/14 03:25:14;;;;;;;8.63;4.93;;;;;;;11.05;100.00;92501.13;5075249;28;20196;-94
2021/05/14 03:27:41;;;;;;;4.57;4.23;;;;;;;11.13;100.00;92434.97;5074460;28;20251;-94
2021/05/14 03:30:09;;;;;;;5.40;4.10;;;;;;;11.47;100.00;92351.25;5074598;28;20270;-94
2021/05/14 03:32:36;;;;;;;5.70;5.30;;;;;;;11.59;100.00;92311.56;5074374;28;20225;-92
2021/05/14 03:35:05;;;;;;;5.17;4.77;;;;;;;11.77;100.00;92282.09;5074718;28;20252;-92
2021/05/14 03:37:31;;;;;;;5.23;4.77;;;;;;;11.71;100.00;92282.38;5074359;28;20189;-93
2021/05/14 03:40:13;;;;;;;6.70;4.60;;;;;;;11.48;100.00;92360.72;5071142;28;20300;-85
2021/05/14 03:42:40;;;;;;;8.37;5.77;;;;;;;11.38;100.00;92384.34;5058530;28;20200;-89
2021/05/14 03:45:09;;;;;;;5.37;4.90;;;;;;;11.41;100.00;92373.31;5073847;28;20205;-85
2021/05/14 03:47:39;;;;;;;5.70;5.07;;;;;;;11.45;100.00;92389.38;5073176;28;20260;-86
2021/05/14 03:50:07;;;;;;;7.37;6.17;;;;;;;11.45;100.00;92369.13;5073198;28;20259;-88
2021/05/14 03:52:33;;;;;;;8.83;5.27;;;;;;;11.59;100.00;92349.16;5072308;28;20201;-89
2021/05/14 03:55:01;;;;;;;5.20;4.27;;;;;;;11.58;100.00;92355.47;5074012;28;20286;-90
2021/05/14 03:57:28;;;;;;;5.10;4.70;;;;;;;11.60;100.00;92358.66;5074202;28;20232;-88
2021/05/14 03:59:57;;;;;;;7.00;4.83;;;;;;;11.61;100.00;92341.81;5073542;28;20279;-88
2021/05/14 04:02:23;;;;;;;6.97;4.80;;;;;;;11.60;100.00;92323.66;5078498;28;20208;-84
2021/05/14 04:04:51;;;;;;;5.70;5.17;;;;;;;11.53;100.00;92297.59;5071468;28;20204;-86
2021/05/14 04:07:19;;;;;;;5.43;5.03;;;;;;;11.45;100.00;92256.06;5072673;28;20225;-84
2021/05/14 04:09:52;;;;;;;5.20;4.70;;;;;;;11.40;100.00;92203.50;5069716;28;20372;-86
2021/05/14 04:15:01;;;;;;;165.47;149.47;;;;;;;11.78;100.00;92132.97;5072358;28;20282;-93
2021/05/14 04:17:27;;;;;;;12.63;11.63;;;;;;;11.57;100.00;92200.56;5073456;28;20254;-92
2021/05/14 04:19:58;;;;;;;6.23;5.73;;;;;;;11.50;100.00;92174.56;5073042;28;20201;-93
2021/05/14 04:22:25;;;;;;;7.23;6.47;;;;;;;11.51;100.00;92128.03;5073059;28;20193;-93
2021/05/14 04:24:52;;;;;;;6.20;5.60;;;;;;;11.81;100.00;92053.50;5073497;28;20222;-93
2021/05/14 04:27:20;;;;;;;5.20;4.70;;;;;;;11.94;100.00;92034.53;5073284;28;20739;-86
2021/05/14 04:29:47;;;;;;;4.87;4.43;;;;;;;11.87;100.00;92042.72;5072656;28;20295;-87
2021/05/14 04:32:17;;;;;;;5.63;5.10;;;;;;;11.72;100.00;92031.47;5072435;28;20236;-90
2021/05/14 04:34:48;;;;;;;6.10;5.33;;;;;;;11.74;100.00;91992.50;5072207;28;20687;-85
2021/05/14 04:37:17;;;;;;;4.80;4.40;;;;;;;11.89;100.00;91945.91;5072379;28;20196;-89
2021/05/14 04:39:44;;;;;;;4.83;4.47;;;;;;;12.23;100.00;91887.28;5072346;28;20204;-84
2021/05/14 04:42:11;;;;;;;7.30;5.63;;;;;;;12.16;100.00;91878.91;5072379;28;20295;-85
2021/05/14 04:44:39;;;;;;;6.00;5.50;;;;;;;12.18;100.00;91854.94;5071677;28;20204;-87
2021/05/14 04:47:06;;;;;;;5.20;4.80;;;;;;;12.37;100.00;91795.28;5072905;28;20231;-85
2021/05/14 04:49:39;;;;;;;4.83;4.33;;;;;;;12.61;100.00;91751.31;5071851;28;20232;-83
2021/05/14 04:52:18;;;;;;;5.93;5.43;;;;;;;12.55;100.00;91794.56;5071919;28;20293;-84
2021/05/14 04:54:46;;;;;;;5.73;5.23;;;;;;;12.68;100.00;91808.91;5071389;28;20188;-85
2021/05/14 04:57:13;;;;;;;6.03;5.07;;;;;;;12.80;100.00;91790.06;5072090;28;20276;-84
2021/05/14 04:59:47;;;;;;;5.77;5.30;;;;;;;12.81;100.00;91773.97;5071849;28;20206;-83
2021/05/14 05:02:14;;;;;;;11.70;8.07;;;;;;;12.93;100.00;91722.72;5071840;28;20280;-84
2021/05/14 05:04:42;;;;;;;8.70;7.70;;;;;;;13.00;100.00;91650.16;5071407;28;20768;-85
2021/05/14 05:07:09;;;;;;;7.13;6.53;;;;;;;13.21;100.00;91565.50;5072632;28;20224;-86
2021/05/14 05:09:36;;;;;;;7.27;6.57;;;;;;;13.06;100.00;91511.97;5071749;28;20197;-85
2021/05/14 05:12:06;;;;;;;7.33;6.53;;;;;;;13.34;100.00;91440.88;5071984;28;20196;-85
2021/05/14 05:14:33;;;;;;;7.63;6.80;;;;;;;13.50;100.00;91317.38;5071573;28;20634;-85
2021/05/14 05:17:07;;;;;;;8.47;6.90;;;;;;;13.69;100.00;91217.00;5072235;28;20665;-87
2021/05/14 05:19:34;;;;;;;6.90;6.30;;;;;;;13.75;100.00;91150.63;5071888;28;20193;-86
2021/05/14 05:22:01;;;;;;;6.57;6.07;;;;;;;13.89;100.00;91075.88;5071819;28;20196;-85
2021/05/14 05:24:28;;;;;;;7.47;5.77;;;;;;;13.96;100.00;91000.47;5072069;28;20196;-85
2021/05/14 05:26:57;;;;;;;5.87;5.37;;;;;;;13.96;100.00;90957.47;5071563;28;20313;-86
2021/05/14 05:29:24;;;;;;;6.23;4.97;;;;;;;13.91;100.00;90979.50;5072049;28;20292;-85
2021/05/14 05:31:51;;;;;;;6.03;5.43;;;;;;;14.00;100.00;91053.41;5071873;28;20351;-84
2021/05/14 05:34:19;;;;;;;5.57;5.13;;;;;;;14.21;100.00;91138.09;5071839;28;20289;-86
2021/05/14 05:36:46;;;;;;;5.50;5.10;;;;;;;14.39;100.00;91211.00;5072067;28;20233;-93
2021/05/14 05:39:12;;;;;;;6.57;5.13;;;;;;;14.50;100.00;91291.53;5072577;28;20200;-93
2021/05/14 05:41:39;;;;;;;49.83;27.53;;;;;;;14.87;100.00;91358.22;5072435;28;20250;-92
2021/05/14 05:44:06;;;;;;;14.03;9.07;;;;;;;14.93;100.00;91510.34;5072795;28;20241;-92
2021/05/14 05:46:33;;;;;;;7.70;6.47;;;;;;;15.08;100.00;91709.34;5072363;28;20239;-93
2021/05/14 05:49:00;;;;;;;12.07;10.87;;;;;;;15.33;100.00;91948.69;5072402;28;20282;-93
2021/05/14 05:51:29;;;;;;;8.70;8.00;;;;;;;15.64;100.00;92184.44;5072434;28;20189;-93
2021/05/14 05:53:59;;;;;;;4.97;4.57;;;;;;;15.62;100.00;92464.50;5072613;28;20202;-92
2021/05/14 05:56:26;;;;;;;4.13;3.80;;;;;;;15.88;100.00;92684.81;5073009;28;20206;-92
2021/05/14 05:58:54;;;;;;;4.37;3.97;;;;;;;15.76;100.00;92894.34;5072804;28;20200;-87
2021/05/14 06:01:21;;;;;;;4.87;4.43;;;;;;;15.96;100.00;93054.19;5072138;28;20284;-89
2021/05/14 06:03:50;;;;;;;4.53;4.13;;;;;;;16.39;100.00;93190.53;5074850;28;20235;-88
2021/05/14 06:06:28;;;;;;;4.43;4.07;;;;;;;16.80;100.00;93329.13;5077738;28;20223;-90
2021/05/14 06:08:58;;;;;;;5.73;5.17;;;;;;;17.08;100.00;93443.69;5078506;28;20208;-96
2021/05/14 06:11:25;;;;;;;4.93;4.63;;;;;;;17.46;100.00;93561.75;5078624;28;20211;-95
2021/05/14 06:13:52;;;;;;;6.30;4.60;;;;;;;17.28;100.00;93709.09;5075955;28;20206;-94
2021/05/14 06:16:22;;;;;;;5.03;4.20;;;;;;;17.70;100.00;93801.06;5075736;28;20216;-95
2021/05/14 06:18:56;;;;;;;4.57;4.17;;;;;;;17.62;100.00;93878.56;5075892;28;20272;-93
2021/05/14 06:21:23;;;;;;;4.83;4.43;;;;;;;17.48;100.00;93931.38;5075966;28;20199;-93
2021/05/14 06:23:51;;;;;;;7.00;3.93;;;;;;;16.90;100.00;93977.44;5076215;28;20669;-93
2021/05/14 06:26:18;;;;;;;4.07;3.70;;;;;;;17.40;100.00;93957.63;5075983;28;20306;-93
2021/05/14 06:28:45;;;;;;;3.77;3.47;;;;;;;17.35;100.00;94007.00;5075948;28;20196;-95
2021/05/14 06:31:11;;;;;;;7.23;3.97;;;;;;;17.71;100.00;94047.03;5075524;28;20197;-89
2021/05/14 06:33:38;;;;;;;4.17;3.20;;;;;;;18.13;100.00;94127.84;5075999;28;20207;-90
2021/05/14 06:36:06;;;;;;;3.30;3.03;;;;;;;18.23;100.00;94219.09;5075584;28;20711;-94
2021/05/14 06:38:33;;;;;;;3.77;3.20;;;;;;;18.25;100.00;94232.13;5075638;28;20224;-88
2021/05/14 06:41:01;;;;;;;3.10;2.90;;;;;;;18.51;100.00;94275.66;5075355;28;20253;-91
2021/05/14 06:43:27;;;;;;;3.67;3.27;;;;;;;18.65;100.00;94308.72;5075300;28;20205;-93
2021/05/14 06:45:54;;;;;;;5.43;3.57;;;;;;;18.56;100.00;94328.06;5075279;28;20650;-92
2021/05/14 06:48:21;;;;;;;6.10;3.27;;;;;;;18.64;100.00;94349.69;5075622;28;20193;-95
2021/05/14 06:50:48;;;;;;;3.37;3.07;;;;;;;19.38;100.00;94362.13;5075144;28;20201;-94
2021/05/14 06:53:27;;;;;;;3.50;3.30;;;;;;;19.50;100.00;94391.22;5075278;28;20195;-90
2021/05/14 06:55:54;;;;;;;4.93;3.50;;;;;;;19.52;100.00;94418.41;5075235;28;20685;-90
2021/05/14 06:58:24;;;;;;;5.00;4.50;;;;;;;19.92;100.00;94414.34;5075113;28;20228;-92
2021/05/14 07:00:51;;;;;;;4.33;4.03;;;;;;;19.18;100.00;94452.56;5074821;28;20233;-92
2021/05/14 07:07:07;;;;;;;4.37;3.47;;;;;;;20.49;100.00;94472.06;5074932;28;20680;-92
2021/05/14 07:09:34;;;;;;;4.33;3.70;;;;;;;20.09;100.00;94542.94;5074641;28;20258;-91
2021/05/14 07:12:01;;;;;;;4.20;3.83;;;;;;;19.50;100.00;94513.78;5074852;28;20281;-93
2021/05/14 07:14:29;;;;;;;5.37;4.07;;;;;;;19.36;100.00;94512.59;5074284;28;20285;-92
2021/05/14 07:16:56;;;;;;;3.77;3.20;;;;;;;19.25;100.00;94533.84;5074811;28;20254;-92
2021/05/14 07:19:27;;;;;;;5.03;4.53;;;;;;;19.89;100.00;94522.28;5074811;28;20196;-93
2021/05/14 07:21:54;;;;;;;3.43;3.20;;;;;;;19.48;100.00;94579.84;5075052;28;20194;-94
2021/05/14 07:24:20;;;;;;;4.37;3.97;;;;;;;19.90;100.00;94579.88;5074902;28;20250;-90
2021/05/14 07:26:47;;;;;;;9.10;7.07;;;;;;;20.15;100.00;94557.88;5074554;28;20708;-89
2021/05/14 07:29:20;;;;;;;7.43;6.70;;;;;;;20.29;100.00;94525.38;5074696;28;20285;-91
2021/05/14 07:31:48;;;;;;;10.00;7.33;;;;;;;20.02;100.00;94545.03;5074616;28;20274;-93
2021/05/14 07:34:15;;;;;;;7.60;6.90;;;;;;;19.67;100.00;94562.44;5074337;28;20197;-92
2021/05/14 07:36:42;;;;;;;11.17;8.43;;;;;;;19.87;100.00;94521.75;5074522;28;20665;-92
2021/05/14 07:39:09;;;;;;;9.03;7.40;;;;;;;19.96;100.00;94548.72;5074437;28;20223;-93
2021/05/14 07:41:35;;;;;;;7.40;6.80;;;;;;;19.91;100.00;94568.16;5074219;28;20272;-92
2021/05/14 07:44:02;;;;;;;9.30;7.77;;;;;;;20.13;100.00;94562.69;5074298;28;20613;-92
2021/05/14 07:46:29;;;;;;;5.87;5.30;;;;;;;20.40;100.00;94607.06;5074159;28;20282;-92
2021/05/14 07:48:57;;;;;;;14.80;5.37;;;;;;;20.10;100.00;94675.22;5074363;28;20221;-91
2021/05/14 07:51:24;;;;;;;7.30;5.47;;;;;;;20.55;100.00;94649.06;5074507;28;20291;-92
2021/05/14 07:53:51;;;;;;;5.30;4.80;;;;;;;20.52;100.00;94693.09;5073965;28;20708;-93
2021/05/14 07:56:18;;;;;;;6.37;5.50;;;;;;;20.61;100.00;94706.75;5073896;28;20292;-93
2021/05/14 07:58:45;;;;;;;7.07;6.17;;;;;;;21.13;100.00;94665.84;5074005;28;20196;-94
2021/05/14 08:01:12;;;;;;;6.00;5.43;;;;;;;20.88;100.00;94725.28;5074069;28;20342;-92
2021/05/14 08:03:38;;;;;;;6.47;5.87;;;;;;;21.00;100.00;94717.06;5073671;28;20259;-91
2021/05/14 08:06:06;;;;;;;8.43;5.43;;;;;;;21.04;100.00;94745.66;5073549;28;20285;-92
2021/05/14 08:08:36;;;;;;;6.83;6.00;;;;;;;21.49;100.00;94692.66;5073632;28;20288;-91
2021/05/14 08:11:06;;;;;;;9.00;6.87;;;;;;;21.93;100.00;94686.78;5073751;28;20193;-91
2021/05/14 08:13:33;;;;;;;7.30;6.60;;;;;;;21.76;100.00;94713.81;5073431;28;20254;-90
2021/05/14 08:16:00;;;;;;;7.40;6.00;;;;;;;21.89;100.00;94723.97;5073703;28;20724;-91
2021/05/14 08:18:27;;;;;;;6.57;5.97;;;;;;;21.78;100.00;94739.19;5073674;28;20201;-92
2021/05/14 08:20:56;;;;;;;7.10;6.40;;;;;;;22.02;100.00;94776.13;5073524;28;20335;-91
2021/05/14 08:23:27;;;;;;;5.37;4.93;;;;;;;21.75;100.00;94816.47;5073567;28;20285;-88
2021/05/14 08:25:54;;;;;;;7.20;4.80;;;;;;;21.55;100.00;94802.00;5072394;28;20231;-90
2021/05/14 08:28:21;;;;;;;6.50;5.90;;;;;;;22.02;100.00;94786.81;5073163;28;20209;-90
2021/05/14 08:30:54;;;;;;;6.13;5.03;;;;;;;22.46;100.00;94821.13;5072821;28;20732;-87
2021/05/14 08:33:27;;;;;;;5.57;5.17;;;;;;;22.77;100.00;94829.94;5073149;28;20197;-89
2021/05/14 08:36:00;;;;;;;4.43;4.03;;;;;;;23.03;100.00;94852.16;5073057;28;20190;-88
2021/05/14 08:38:28;;;;;;;7.63;4.70;;;;;;;23.20;100.00;94871.41;5073016;28;20258;-88
2021/05/14 08:40:54;;;;;;;5.27;4.77;;;;;;;23.37;100.00;94855.00;5073046;28;20740;-89
2021/05/14 08:43:22;;;;;;;9.00;5.47;;;;;;;22.67;100.00;94894.22;5073086;28;20232;-90
2021/05/14 08:45:55;;;;;;;6.63;4.80;;;;;;;22.64;100.00;94895.56;5073686;28;20197;-88
2021/05/14 08:48:23;;;;;;;4.40;4.00;;;;;;;22.59;100.00;94941.09;5073335;28;20228;-89
2021/05/14 08:50:53;;;;;;;3.87;3.53;;;;;;;22.03;100.00;94997.94;5072837;28;20283;-89
2021/05/14 08:53:20;;;;;;;3.40;3.10;;;;;;;21.83;100.00;94973.75;5072798;28;20207;-89
2021/05/14 08:55:48;;;;;;;3.47;3.17;;;;;;;21.80;100.00;94976.97;5072787;28;20193;-90
2021/05/14 08:58:18;;;;;;;4.10;3.60;;;;;;;21.74;100.00;95039.50;5073299;28;20267;-90
2021/05/14 09:00:45;;;;;;;3.33;3.03;;;;;;;22.41;100.00;95057.53;5072990;28;20203;-89
2021/05/14 09:03:12;;;;;;;3.63;2.93;;;;;;;21.57;100.00;95075.22;5073246;28;20663;-89
2021/05/14 09:05:40;;;;;;;3.50;3.20;;;;;;;21.00;100.00;95059.75;5073302;28;20665;-90
2021/05/14 09:08:07;;;;;;;3.60;3.30;;;;;;;21.22;100.00;95008.09;5072688;28;20262;-89
2021/05/14 09:10:35;;;;;;;3.30;3.00;;;;;;;20.83;100.00;95051.06;5072773;28;20251;-92
2021/05/14 09:13:12;;;;;;;3.33;3.13;;;;;;;21.19;100.00;95024.66;5073256;28;20193;-92
2021/05/14 09:15:42;;;;;;;3.43;2.70;;;;;;;20.92;100.00;95049.56;5072869;28;20707;-92
2021/05/14 09:18:14;;;;;;;3.33;3.10;;;;;;;20.63;100.00;95043.63;5072788;28;20196;-92
2021/05/14 09:20:44;;;;;;;3.50;3.27;;;;;;;20.64;100.00;95030.06;5072382;28;20197;-89
2021/05/14 09:23:47;;;;;;;5.37;3.00;;;;;;;21.32;100.00;95056.28;5072565;28;20197;-89
2021/05/14 09:26:17;;;;;;;4.13;2.83;;;;;;;21.21;100.00;95082.13;5040602;28;20239;-86
2021/05/14 09:28:47;;;;;;;3.20;2.90;;;;;;;20.84;100.00;95084.69;5072257;28;20200;-86
2021/05/14 09:31:15;;;;;;;7.07;3.93;;;;;;;20.32;100.00;95069.94;5072896;28;20193;-88
2021/05/14 09:33:43;;;;;;;4.53;3.00;;;;;;;20.09;100.00;95094.19;5072153;28;20239;-88
2021/05/14 09:36:13;;;;;;;3.13;2.83;;;;;;;21.14;100.00;95078.84;5073295;28;20251;-88
2021/05/14 09:38:49;;;;;;;5.17;3.43;;;;;;;21.97;100.00;95065.84;5076292;28;20181;-89
2021/05/14 09:41:33;;;;;;;4.73;3.17;;;;;;;22.51;100.00;95057.56;5076626;28;20196;-89
2021/05/14 09:44:07;;;;;;;2.77;2.33;;;;;;;22.75;100.00;95083.84;5076352;28;20185;-91
2021/05/14 09:46:41;;;;;;;3.03;2.70;;;;;;;22.55;100.00;95108.72;5076562;28;20687;-88
2021/05/14 09:49:12;;;;;;;3.93;2.97;;;;;;;22.00;100.00;95116.16;5075903;28;20217;-88
2021/05/14 09:51:55;;;;;;;4.03;3.00;;;;;;;21.85;100.00;95113.38;5076326;28;20220;-87
2021/05/14 09:54:24;;;;;;;5.03;2.77;;;;;;;21.80;100.00;95129.41;5074424;28;20288;-89
2021/05/14 09:57:17;;;;;;;3.93;2.80;;;;;;;21.96;100.00;95133.81;5075993;28;20736;-88
2021/05/14 09:59:49;;;;;;;5.70;2.77;;;;;;;22.22;100.00;95133.97;5075963;28;20235;-88
2021/05/14 10:02:27;;;;;;;3.97;2.53;;;;;;;22.32;100.00;95134.03;5075856;28;20291;-88
2021/05/14 10:04:54;;;;;;;4.40;2.57;;;;;;;22.48;100.00;95156.31;5036019;28;20295;-88
2021/05/14 10:07:24;;;;;;;2.50;2.30;;;;;;;22.58;100.00;95144.84;5035778;28;20409;-88
2021/05/14 10:09:55;;;;;;;2.00;1.90;;;;;;;22.40;100.00;95173.69;5036345;28;20198;-88
2021/05/14 10:12:22;;;;;;;2.40;2.20;;;;;;;22.95;100.00;95160.81;5036099;28;20671;-90
2021/05/14 10:14:51;;;;;;;1.60;1.30;;;;;;;22.76;100.00;95257.72;5036086;28;20209;-92
2021/05/14 10:17:31;;;;;;;1.30;1.20;;;;;;;22.34;100.00;95382.72;5035877;28;20206;-92
2021/05/14 10:20:14;;;;;;;1.73;1.33;;;;;;;22.37;100.00;95443.78;5035827;28;20194;-93
2021/05/14 10:22:45;;;;;;;2.70;1.93;;;;;;;22.33;100.00;95480.94;5036045;28;20190;-90
2021/05/14 10:25:44;;;;;;;1.00;1.00;;;;;;;23.33;100.00;95469.78;5035731;28;20195;-89
2021/05/14 10:28:13;;;;;;;1.67;1.30;;;;;;;22.78;100.00;95453.78;5035190;28;20222;-89
2021/05/14 10:31:15;;;;;;;2.23;1.40;;;;;;;22.86;100.00;95439.16;5035626;28;20229;-92
2021/05/14 10:33:44;;;;;;;0.70;0.70;;;;;;;23.29;100.00;95627.69;5031838;28;20289;-89
2021/05/14 10:36:12;;;;;;;2.33;1.00;;;;;;;24.02;100.00;95676.31;5035723;28;20664;-90
2021/05/14 10:38:40;;;;;;;1.80;0.90;;;;;;;23.58;100.00;95723.94;5035186;28;20205;-89
2021/05/14 10:41:27;;;;;;;0.90;0.90;;;;;;;22.61;100.00;95755.75;5035900;28;20187;-91
2021/05/14 10:44:03;;;;;;;2.50;0.70;;;;;;;23.22;100.00;95748.53;5035614;28;20570;-89
2021/05/14 10:46:31;;;;;;;4.73;0.83;;;;;;;23.39;100.00;95759.16;5035098;28;20245;-92
2021/05/14 10:49:04;;;;;;;1.20;0.80;;;;;;;23.55;100.00;95764.69;5034535;28;20286;-90
2021/05/14 10:52:07;;;;;;;0.80;0.80;;;;;;;23.63;100.00;95758.88;5035502;28;20199;-91
2021/05/14 10:54:54;;;;;;;2.47;1.00;;;;;;;22.95;100.00;95759.19;5032995;28;20667;-92
2021/05/14 10:57:47;;;;;;;1.07;0.97;;;;;;;23.52;100.00;95733.00;5030670;28;20195;-92
2021/05/14 11:00:34;;;;;;;1.50;1.27;;;;;;;23.11;100.00;95749.47;5035194;28;20279;-93
2021/05/14 11:03:19;;;;;;;0.80;0.80;;;;;;;23.13;100.00;95759.94;5045598;28;20696;-93
2021/05/14 11:05:48;;;;;;;1.03;1.00;;;;;;;23.13;100.00;95767.97;5074762;28;20254;-95
2021/05/14 11:08:41;;;;;;;3.07;0.73;;;;;;;22.58;100.00;95785.69;5075808;28;20654;-94
2021/05/14 11:11:11;;;;;;;0.80;0.80;;;;;;;22.09;100.00;95788.13;5074920;28;20204;-94
2021/05/14 11:13:41;;;;;;;0.87;0.63;;;;;;;22.13;100.00;95796.50;5074870;28;20737;-93
2021/05/14 11:16:33;;;;;;;2.17;0.77;;;;;;;22.35;100.00;95789.41;5074819;28;20282;-90
2021/05/14 11:19:09;;;;;;;1.03;0.63;;;;;;;22.41;100.00;95798.28;5074906;28;20201;-93
2021/05/14 11:22:12;;;;;;;1.33;0.60;;;;;;;22.56;100.00;95790.50;5074677;28;20201;-90
2021/05/14 11:24:42;;;;;;;0.93;0.73;;;;;;;22.50;100.00;95794.97;5074971;28;20215;-91
2021/05/14 11:27:11;;;;;;;3.80;1.00;;;;;;;22.16;100.00;95793.34;5074559;28;20285;-91
2021/05/14 11:29:44;;;;;;;3.17;0.80;;;;;;;22.26;100.00;95805.03;5074748;28;20193;-91
2021/05/14 11:32:33;;;;;;;2.23;1.00;;;;;;;21.76;100.00;95797.75;5075003;28;20665;-90
2021/05/14 11:35:07;;;;;;;3.23;1.33;;;;;;;21.33;100.00;95798.25;5074695;28;20567;-90
2021/05/14 11:37:51;;;;;;;2.03;1.00;;;;;;;21.84;100.00;95777.81;5074470;28;20181;-91
2021/05/14 11:40:19;;;;;;;2.10;1.03;;;;;;;22.75;100.00;95765.03;5074649;28;20201;-90
2021/05/14 11:42:48;;;;;;;3.03;1.23;;;;;;;22.26;100.00;95786.31;5074126;28;20201;-90